Ridgeville, Indiana
Current Conditions -  °F | °C
As of 11:57 AM on Friday 31 Oct 2014 (Local Time) from KMIE Reporting Station
Light Rain Light Rain  
Wind Chill: 31°   Ceiling: 1400
Heat Index: 40°   Visibility: 10mi
Dew Point: 37°   Wind: 18mph
Humidity: 89%   Direction: 320°NW
Pressure: 29.97"   Gusts: NA
Location:  40.29°N, 85.03°W
Report Text: KMIE 311557Z 32016KT 10SM -RA BKN014 BKN020 OVC038 04/03 A2997 RMK AO2 P0000 T00440028
Loading
Personal Weather Stations






























Interactive Weather Map
Tropical Storm Tracking
New forecast layout! Learn more

10-Day Weather Forecast

Advertisements
Track Severe Weather on mobile